createdAt,value
2018-06-16T00:02:07.106Z,91.10
2018-06-16T00:04:36.381Z,90.90
2018-06-16T00:07:05.784Z,90.60
2018-06-16T00:09:34.999Z,89.70
2018-06-16T00:12:04.236Z,89.20
2018-06-16T00:14:33.485Z,90.00
2018-06-16T00:17:02.714Z,90.30
2018-06-16T00:19:31.932Z,90.30
2018-06-16T00:22:01.178Z,90.60
2018-06-16T00:24:30.408Z,90.70
2018-06-16T00:29:28.396Z,91.20
2018-06-16T00:31:57.638Z,91.10
2018-06-16T00:34:26.907Z,91.20
2018-06-16T00:36:56.171Z,91.50
2018-06-16T00:39:28.431Z,91.30
2018-06-16T00:41:57.695Z,91.60
2018-06-16T00:44:26.934Z,91.60
2018-06-16T00:46:56.199Z,92.00
2018-06-16T00:49:25.432Z,91.90
2018-06-16T00:51:54.653Z,92.30
2018-06-16T00:54:23.916Z,92.40
2018-06-16T00:57:04.539Z,92.40
2018-06-16T00:59:33.816Z,92.20
2018-06-16T01:02:03.118Z,92.50
2018-06-16T01:04:32.591Z,92.60
2018-06-16T01:07:01.827Z,92.60
2018-06-16T01:09:31.103Z,92.80
2018-06-16T01:12:00.495Z,93.00
2018-06-16T01:14:29.704Z,93.20
2018-06-16T01:16:58.955Z,93.20
2018-06-16T01:19:28.182Z,93.60
2018-06-16T01:21:57.382Z,94.10
2018-06-16T01:24:26.599Z,93.70
2018-06-16T01:29:24.641Z,94.00
2018-06-16T01:31:53.832Z,94.20
2018-06-16T01:34:23.036Z,94.20
2018-06-16T01:36:52.233Z,94.50
2018-06-16T01:39:21.465Z,94.60
2018-06-16T01:41:50.703Z,94.50
2018-06-16T01:44:19.921Z,94.90
2018-06-16T01:46:49.265Z,94.80
2018-06-16T01:51:47.279Z,95.20
2018-06-16T01:54:16.463Z,95.30
2018-06-16T01:56:45.707Z,95.40
2018-06-16T01:59:14.936Z,95.40
2018-06-16T02:01:44.350Z,95.60
2018-06-16T02:04:13.579Z,95.90
2018-06-16T02:06:42.799Z,96.10
2018-06-16T02:09:12.536Z,96.20
2018-06-16T02:11:41.783Z,96.30
2018-06-16T02:14:11.564Z,96.40
2018-06-16T02:16:40.795Z,96.40
2018-06-16T02:19:10.060Z,96.40
2018-06-16T02:21:39.334Z,96.50
2018-06-16T02:24:08.616Z,96.50
2018-06-16T02:26:37.816Z,97.00
2018-06-16T02:29:07.044Z,96.80
2018-06-16T02:31:36.343Z,96.90
2018-06-16T02:34:05.659Z,96.90
2018-06-16T02:36:34.868Z,97.00
2018-06-16T02:39:06.251Z,97.00
2018-06-16T02:44:08.904Z,97.00
2018-06-16T02:46:38.228Z,97.10
2018-06-16T02:49:07.506Z,97.30
2018-06-16T02:51:36.741Z,97.20
2018-06-16T02:54:06.459Z,97.30
2018-06-16T02:56:35.680Z,97.20
2018-06-16T02:59:04.908Z,97.30
2018-06-16T03:01:34.223Z,97.60
2018-06-16T03:04:03.452Z,97.90
2018-06-16T03:06:32.783Z,97.70
2018-06-16T03:09:02.015Z,97.60
2018-06-16T03:11:31.240Z,97.30
2018-06-16T03:14:00.470Z,97.40
2018-06-16T03:16:29.668Z,97.40
2018-06-16T03:21:27.664Z,97.10
2018-06-16T03:23:56.903Z,97.00
2018-06-16T03:26:26.117Z,97.30
2018-06-16T03:28:55.317Z,97.30
2018-06-16T03:31:24.579Z,97.30
2018-06-16T03:33:53.812Z,97.20
2018-06-16T03:36:23.084Z,97.30
2018-06-16T03:38:52.862Z,97.20
2018-06-16T03:41:22.105Z,97.60
2018-06-16T03:43:51.375Z,97.40
2018-06-16T03:46:20.600Z,97.30
2018-06-16T03:48:49.816Z,97.20
2018-06-16T03:51:19.044Z,97.20
2018-06-16T03:56:17.015Z,97.40
2018-06-16T03:58:46.238Z,97.40
2018-06-16T04:01:15.462Z,97.30
2018-06-16T04:03:44.715Z,96.90
2018-06-16T04:08:42.762Z,96.90
2018-06-16T04:11:12.007Z,96.90
2018-06-16T04:13:41.293Z,96.80
2018-06-16T04:16:12.031Z,96.90
2018-06-16T04:18:41.325Z,97.00
2018-06-16T04:21:10.588Z,96.60
2018-06-16T04:23:39.870Z,96.60
2018-06-16T04:26:09.133Z,96.70
2018-06-16T04:28:38.380Z,96.30
2018-06-16T04:31:07.599Z,96.30
2018-06-16T04:33:36.851Z,96.10
2018-06-16T04:36:06.159Z,95.90
2018-06-16T04:38:35.557Z,95.80
2018-06-16T04:41:04.783Z,95.40
2018-06-16T04:43:34.001Z,95.30
2018-06-16T04:46:03.224Z,95.30
2018-06-16T04:48:32.443Z,95.60
2018-06-16T04:51:01.660Z,95.50
2018-06-16T04:53:30.883Z,95.20
2018-06-16T04:56:00.134Z,95.00
2018-06-16T04:58:29.427Z,94.60
2018-06-16T05:00:58.643Z,94.30
2018-06-16T05:03:27.870Z,94.20
2018-06-16T05:05:57.254Z,94.00
2018-06-16T05:08:26.516Z,94.10
2018-06-16T05:13:24.590Z,94.20
2018-06-16T05:15:53.876Z,94.00
2018-06-16T05:18:23.043Z,94.00
2018-06-16T05:20:52.403Z,93.70
2018-06-16T05:23:21.602Z,93.80
2018-06-16T05:25:50.889Z,93.70
2018-06-16T05:28:20.095Z,93.50
2018-06-16T05:30:49.324Z,93.40
2018-06-16T05:33:18.543Z,93.20
2018-06-16T05:35:47.821Z,93.10
2018-06-16T05:38:17.098Z,93.20
2018-06-16T05:40:46.386Z,93.10
2018-06-16T05:43:15.653Z,92.90
2018-06-16T05:45:44.923Z,92.90
2018-06-16T05:48:14.139Z,92.70
2018-06-16T05:50:43.412Z,92.40
2018-06-16T05:53:12.698Z,92.50
2018-06-16T05:55:41.919Z,92.50
2018-06-16T05:58:11.123Z,92.00
2018-06-16T06:00:40.391Z,92.30
2018-06-16T06:03:09.615Z,91.90
2018-06-16T06:05:38.916Z,92.10
2018-06-16T06:08:08.375Z,91.50
2018-06-16T06:10:37.631Z,91.80
2018-06-16T06:13:06.802Z,91.70
2018-06-16T06:15:36.063Z,91.90
2018-06-16T06:18:05.316Z,91.90
2018-06-16T06:20:34.592Z,91.20
2018-06-16T06:23:03.814Z,90.80
2018-06-16T06:25:33.115Z,90.70
2018-06-16T06:28:02.344Z,90.40
2018-06-16T06:30:31.568Z,89.70
2018-06-16T06:33:00.812Z,88.40
2018-06-16T06:35:30.060Z,87.40
2018-06-16T06:37:59.292Z,86.30
2018-06-16T06:40:28.565Z,85.40
2018-06-16T06:42:58.023Z,86.40
2018-06-16T06:45:27.303Z,86.10
2018-06-16T06:47:56.610Z,85.60
2018-06-16T06:50:25.856Z,86.30
2018-06-16T06:52:55.094Z,84.50
2018-06-16T06:55:24.367Z,84.70
2018-06-16T06:57:53.646Z,85.10
2018-06-16T07:00:22.839Z,85.40
2018-06-16T07:02:52.107Z,85.90
2018-06-16T07:05:21.321Z,86.90
2018-06-16T07:07:50.544Z,85.50
2018-06-16T07:10:19.847Z,85.90
2018-06-16T07:12:49.086Z,83.30
2018-06-16T07:15:18.315Z,82.90
2018-06-16T07:17:47.557Z,83.20
2018-06-16T07:20:16.777Z,83.20
2018-06-16T07:22:46.343Z,80.80
2018-06-16T07:25:15.618Z,79.70
2018-06-16T07:27:44.884Z,76.80
2018-06-16T07:30:14.115Z,76.30
2018-06-16T07:32:43.420Z,75.60
2018-06-16T07:35:12.662Z,75.90
2018-06-16T07:37:41.913Z,74.00
2018-06-16T07:42:39.954Z,73.90
2018-06-16T07:45:09.303Z,72.10
2018-06-16T07:50:07.516Z,64.40
2018-06-16T07:52:36.762Z,62.80
2018-06-16T07:55:06.192Z,66.10
2018-06-16T07:57:35.423Z,68.70
2018-06-16T08:00:04.874Z,66.40
2018-06-16T08:02:34.102Z,63.50
2018-06-16T08:05:03.330Z,62.50
2018-06-16T08:07:32.658Z,59.70
2018-06-16T08:10:02.027Z,61.60
2018-06-16T08:12:31.274Z,60.10
2018-06-16T08:15:00.591Z,61.00
2018-06-16T08:17:29.865Z,61.00
2018-06-16T08:19:59.094Z,60.10
2018-06-16T08:22:28.446Z,61.70
2018-06-16T08:24:57.715Z,62.50
2018-06-16T08:27:27.058Z,59.40
2018-06-16T08:29:56.280Z,57.50
2018-06-16T08:32:25.516Z,57.70
2018-06-16T08:34:54.812Z,56.20
2018-06-16T08:37:24.169Z,58.80
2018-06-16T08:42:22.805Z,60.00
2018-06-16T08:44:52.111Z,57.40
2018-06-16T08:47:21.350Z,59.10
2018-06-16T08:49:50.633Z,59.60
2018-06-16T08:52:19.890Z,58.30
2018-06-16T08:54:49.142Z,57.70
2018-06-16T08:57:18.360Z,58.10
2018-06-16T08:59:47.625Z,56.90
2018-06-16T09:02:16.907Z,58.20
2018-06-16T09:04:46.157Z,57.00
2018-06-16T09:07:15.385Z,57.10
2018-06-16T09:09:44.629Z,58.40
2018-06-16T09:12:13.903Z,56.80
2018-06-16T09:14:43.130Z,57.30
2018-06-16T09:17:12.365Z,58.10
2018-06-16T09:19:41.610Z,57.80
2018-06-16T09:22:10.836Z,58.00
2018-06-16T09:24:40.125Z,56.50
2018-06-16T09:27:09.459Z,58.50
2018-06-16T09:29:38.734Z,57.00
2018-06-16T09:34:36.742Z,56.90
2018-06-16T09:37:06.065Z,56.90
2018-06-16T09:39:35.343Z,57.80
2018-06-16T09:42:04.620Z,55.90
2018-06-16T09:44:33.801Z,56.60
2018-06-16T09:47:03.053Z,57.20
2018-06-16T09:49:32.342Z,58.50
2018-06-16T09:52:01.639Z,56.10
2018-06-16T09:54:30.884Z,56.10
2018-06-16T09:57:00.145Z,58.60
2018-06-16T09:59:29.372Z,59.00
2018-06-16T10:01:58.675Z,58.30
2018-06-16T10:04:27.907Z,58.10
2018-06-16T10:06:57.144Z,57.30
2018-06-16T10:09:26.455Z,56.60
2018-06-16T10:11:55.662Z,58.70
2018-06-16T10:14:24.955Z,58.40
2018-06-16T10:16:54.227Z,61.50
2018-06-16T10:19:23.470Z,61.00
2018-06-16T10:21:52.787Z,63.80
2018-06-16T10:24:22.064Z,60.90
2018-06-16T10:26:51.318Z,63.00
2018-06-16T10:29:20.540Z,63.10
2018-06-16T10:31:49.801Z,60.40
2018-06-16T10:36:47.864Z,58.10
2018-06-16T10:39:17.182Z,57.50
2018-06-16T10:41:46.456Z,57.00
2018-06-16T10:44:15.730Z,55.50
2018-06-16T10:46:44.999Z,58.80
2018-06-16T10:49:14.388Z,56.40
2018-06-16T10:51:43.607Z,57.40
2018-06-16T10:54:12.903Z,55.00
2018-06-16T10:56:44.625Z,56.70
2018-06-16T10:59:14.286Z,55.60
2018-06-16T11:01:43.766Z,54.60
2018-06-16T11:04:13.186Z,56.00
2018-06-16T11:29:27.803Z,55.20
2018-06-16T11:34:42.143Z,51.90
2018-06-16T11:37:11.517Z,52.70
2018-06-16T11:39:40.850Z,51.90
2018-06-16T11:42:10.133Z,52.90
2018-06-16T11:44:39.576Z,50.90
2018-06-16T11:47:09.205Z,49.30
2018-06-16T11:49:38.692Z,49.60
2018-06-16T11:52:08.023Z,51.70
2018-06-16T11:54:37.590Z,50.40
2018-06-16T11:57:06.905Z,51.00
2018-06-16T11:59:36.216Z,51.40
2018-06-16T12:02:05.723Z,52.70
2018-06-16T12:04:35.024Z,50.90
2018-06-16T12:07:04.341Z,51.10
2018-06-16T12:09:33.696Z,51.50
2018-06-16T12:12:02.963Z,50.10
2018-06-16T12:14:32.323Z,49.80
2018-06-16T12:17:01.724Z,47.90
2018-06-16T12:19:31.141Z,48.60
2018-06-16T12:22:00.501Z,48.30
2018-06-16T12:24:29.829Z,49.10
2018-06-16T12:26:59.203Z,50.10
2018-06-16T12:29:29.022Z,50.30
2018-06-16T12:31:58.378Z,46.80
2018-06-16T12:34:27.703Z,46.90
2018-06-16T12:39:25.794Z,46.30
2018-06-16T12:41:55.156Z,48.00
2018-06-16T12:44:24.459Z,47.20
2018-06-16T12:46:53.711Z,47.70
2018-06-16T12:49:22.968Z,47.60
2018-06-16T12:51:52.278Z,48.90
2018-06-16T12:54:21.679Z,45.90
2018-06-16T12:56:51.110Z,45.60
2018-06-16T12:59:20.413Z,43.50
2018-06-16T13:01:49.730Z,46.10
2018-06-16T13:04:19.035Z,43.80
2018-06-16T13:06:48.479Z,44.00
2018-06-16T13:09:17.780Z,46.40
2018-06-16T13:11:47.083Z,47.60
2018-06-16T13:14:16.407Z,46.70
2018-06-16T13:16:45.700Z,47.10
2018-06-16T13:19:14.995Z,47.20
2018-06-16T13:21:44.302Z,48.00
2018-06-16T13:24:13.564Z,49.10
2018-06-16T13:29:11.825Z,49.50
2018-06-16T13:31:41.097Z,49.60
2018-06-16T13:34:10.479Z,49.20
2018-06-16T13:36:39.801Z,50.30
2018-06-16T13:41:40.381Z,50.30
2018-06-16T13:44:09.781Z,50.50
2018-06-16T13:46:39.187Z,52.40
2018-06-16T13:49:08.572Z,53.00
2018-06-16T13:51:37.837Z,51.30
2018-06-16T13:54:07.202Z,51.70
2018-06-16T13:56:36.518Z,52.40
2018-06-16T13:59:05.780Z,53.60
2018-06-16T14:01:35.067Z,53.60
2018-06-16T14:04:04.447Z,53.80
2018-06-16T14:06:33.743Z,54.70
2018-06-16T14:09:03.317Z,55.00
2018-06-16T14:11:32.610Z,54.50
2018-06-16T14:14:01.895Z,55.10
2018-06-16T14:16:31.222Z,56.60
2018-06-16T14:19:00.537Z,54.70
2018-06-16T14:23:58.675Z,57.40
2018-06-16T14:26:28.016Z,57.80
2018-06-16T14:28:57.336Z,58.90
2018-06-16T14:31:26.638Z,60.60
2018-06-16T14:33:55.978Z,60.60
2018-06-16T14:36:25.295Z,59.40
2018-06-16T14:38:54.697Z,57.50
2018-06-16T14:41:24.184Z,57.60
2018-06-16T14:43:53.751Z,56.60
2018-06-16T14:46:23.051Z,57.70
2018-06-16T14:48:52.344Z,56.20
2018-06-16T14:51:21.685Z,56.60
2018-06-16T14:53:52.072Z,56.90
2018-06-16T14:56:21.369Z,56.90
2018-06-16T14:58:50.685Z,57.70
2018-06-16T15:01:19.942Z,56.10
2018-06-16T15:03:49.398Z,56.30
2018-06-16T15:06:18.777Z,56.40
2018-06-16T15:08:48.842Z,56.10
2018-06-16T15:11:18.154Z,55.80
2018-06-16T15:13:47.462Z,56.10
2018-06-16T15:16:16.813Z,56.40
2018-06-16T15:18:46.114Z,57.20
2018-06-16T15:21:15.390Z,57.10
2018-06-16T15:23:44.711Z,54.70
2018-06-16T15:26:13.970Z,54.90
2018-06-16T15:28:43.316Z,53.30
2018-06-16T15:31:12.605Z,54.70
2018-06-16T15:33:41.980Z,55.60
2018-06-16T15:36:11.367Z,55.00
2018-06-16T15:38:40.715Z,55.60
2018-06-16T15:41:10.047Z,56.20
2018-06-16T15:43:39.429Z,55.80
2018-06-16T15:46:08.830Z,56.00
2018-06-16T15:48:38.159Z,55.40
2018-06-16T15:51:07.582Z,55.00
2018-06-16T15:53:37.066Z,55.20
2018-06-16T15:56:06.658Z,56.20
2018-06-16T15:58:36.074Z,55.20
2018-06-16T16:01:05.474Z,55.60
2018-06-16T16:03:34.852Z,56.20
2018-06-16T16:06:04.219Z,57.00
2018-06-16T16:08:33.465Z,57.40
2018-06-16T16:11:02.743Z,58.10
2018-06-16T16:13:32.121Z,58.70
2018-06-16T16:16:01.374Z,59.20
2018-06-16T16:18:30.742Z,60.50
2018-06-16T16:21:00.077Z,63.40
2018-06-16T16:23:29.374Z,65.50
2018-06-16T16:25:58.660Z,67.10
2018-06-16T16:28:27.939Z,68.20
2018-06-16T16:30:57.291Z,69.80
2018-06-16T16:33:26.608Z,70.90
2018-06-16T16:35:56.214Z,72.40
2018-06-16T16:38:26.106Z,73.70
2018-06-16T16:40:55.380Z,74.40
2018-06-16T16:43:24.643Z,75.30
2018-06-16T16:45:53.892Z,75.50
2018-06-16T16:48:23.195Z,76.40
2018-06-16T16:50:52.501Z,75.60
2018-06-16T16:53:21.848Z,75.90
2018-06-16T16:55:51.241Z,75.50
2018-06-16T16:58:20.633Z,74.90
2018-06-16T17:00:50.172Z,75.00
2018-06-16T17:03:19.644Z,76.20
2018-06-16T17:05:49.015Z,76.10
2018-06-16T17:08:18.483Z,76.10
2018-06-16T17:10:47.847Z,75.00
2018-06-16T17:13:17.179Z,74.70
2018-06-16T17:15:46.464Z,74.80
2018-06-16T17:20:44.599Z,75.80
2018-06-16T17:23:13.906Z,76.30
2018-06-16T17:25:43.271Z,75.90
2018-06-16T17:28:12.529Z,77.30
2018-06-16T17:30:41.819Z,76.60
2018-06-16T17:33:11.303Z,77.00
2018-06-16T17:35:40.634Z,78.00
2018-06-16T17:38:09.903Z,78.60
2018-06-16T17:40:39.239Z,79.70
2018-06-16T17:43:08.541Z,80.10
2018-06-16T17:45:37.806Z,80.40
2018-06-16T17:48:07.155Z,79.80
2018-06-16T17:50:36.461Z,80.80
2018-06-16T17:53:05.784Z,81.70
2018-06-16T17:55:35.071Z,82.00
2018-06-16T17:58:04.366Z,81.30
2018-06-16T18:00:33.785Z,81.70
2018-06-16T18:03:03.111Z,82.60
2018-06-16T18:05:32.468Z,82.90
2018-06-16T18:08:01.823Z,82.00
2018-06-16T18:10:31.345Z,81.80
2018-06-16T18:13:00.779Z,80.90
2018-06-16T18:15:30.123Z,81.40
2018-06-16T18:17:59.431Z,82.90
2018-06-16T18:20:28.778Z,84.90
2018-06-16T18:22:58.100Z,86.30
2018-06-16T18:25:27.457Z,87.10
2018-06-16T18:27:56.736Z,87.90
2018-06-16T18:30:26.065Z,89.90
2018-06-16T18:32:55.451Z,92.90
2018-06-16T18:35:24.762Z,95.30
2018-06-16T18:37:54.303Z,98.10
2018-06-16T18:40:23.640Z,99.30
2018-06-16T18:42:53.227Z,99.90
2018-06-16T18:45:22.559Z,99.90
2018-06-16T18:47:51.975Z,99.90
2018-06-16T18:50:21.326Z,99.90
2018-06-16T18:52:50.985Z,99.90
2018-06-16T18:57:49.198Z,99.90
2018-06-16T19:00:18.544Z,99.90
2018-06-16T19:02:48.475Z,99.90
2018-06-16T19:05:17.821Z,99.90
2018-06-16T19:07:47.703Z,99.90
2018-06-16T19:10:17.249Z,99.90
2018-06-16T19:12:46.743Z,99.90
2018-06-16T19:15:15.996Z,99.90
2018-06-16T19:17:45.404Z,99.90
2018-06-16T19:20:14.718Z,99.90
2018-06-16T19:22:44.056Z,99.90
2018-06-16T19:25:13.345Z,99.90
2018-06-16T19:27:43.183Z,99.90
2018-06-16T19:30:12.714Z,99.90
2018-06-16T19:32:42.044Z,99.90
2018-06-16T19:35:11.734Z,99.90
2018-06-16T19:37:41.154Z,99.90
2018-06-16T19:40:10.545Z,99.90
2018-06-16T19:42:39.897Z,99.90
2018-06-16T19:45:09.197Z,99.90
2018-06-16T19:47:38.649Z,99.90
2018-06-16T19:50:08.074Z,99.90
2018-06-16T19:52:37.415Z,99.90
2018-06-16T19:55:06.979Z,99.90
2018-06-16T19:57:36.387Z,99.90
2018-06-16T20:00:05.808Z,99.90
2018-06-16T20:02:35.216Z,99.90
2018-06-16T20:05:04.599Z,99.90
2018-06-16T20:07:33.881Z,99.90
2018-06-16T20:10:03.302Z,99.90
2018-06-16T20:12:33.397Z,99.90
2018-06-16T20:15:02.925Z,99.90
2018-06-16T20:17:32.201Z,99.90
2018-06-16T20:20:01.535Z,99.90
2018-06-16T20:22:31.191Z,99.90
2018-06-16T20:25:00.643Z,99.90
2018-06-16T20:27:29.919Z,99.90
2018-06-16T20:29:59.387Z,99.90
2018-06-16T20:32:28.803Z,99.90
2018-06-16T20:34:58.118Z,99.90
2018-06-16T20:37:27.417Z,99.90
2018-06-16T20:39:56.739Z,99.90
2018-06-16T20:42:26.085Z,99.90
2018-06-16T20:44:55.586Z,99.90
2018-06-16T20:47:24.879Z,99.90
2018-06-16T20:49:54.258Z,99.90
2018-06-16T20:52:23.626Z,99.90
2018-06-16T20:54:52.999Z,99.90
2018-06-16T20:57:22.320Z,99.90
2018-06-16T20:59:51.607Z,99.90
2018-06-16T21:02:20.881Z,99.90
2018-06-16T21:04:50.213Z,99.90
2018-06-16T21:07:19.508Z,99.90
2018-06-16T21:09:48.852Z,99.90
2018-06-16T21:12:18.152Z,99.90
2018-06-16T21:14:47.531Z,99.90
2018-06-16T21:17:16.826Z,99.90
2018-06-16T21:19:46.174Z,99.90
2018-06-16T21:22:15.733Z,99.90
2018-06-16T21:24:45.037Z,99.90
2018-06-16T21:27:14.349Z,99.90
2018-06-16T21:29:43.683Z,99.90
2018-06-16T21:32:13.021Z,99.90
2018-06-16T21:34:42.740Z,99.90
2018-06-16T21:37:12.024Z,99.50
2018-06-16T21:39:41.447Z,99.80
2018-06-16T21:42:10.836Z,99.20
2018-06-16T21:44:40.213Z,99.20
2018-06-16T21:47:09.840Z,99.40
2018-06-16T21:49:39.255Z,99.50
2018-06-16T21:52:08.693Z,99.90
2018-06-16T21:54:37.987Z,99.60
2018-06-16T21:57:07.314Z,99.80
2018-06-16T21:59:36.573Z,99.60
2018-06-16T22:02:05.997Z,99.70
2018-06-16T22:07:04.382Z,99.40
2018-06-16T22:09:33.727Z,99.10
2018-06-16T22:12:03.630Z,99.50
2018-06-16T22:14:32.903Z,99.20
2018-06-16T22:17:02.201Z,99.00
2018-06-16T22:19:31.478Z,99.10
2018-06-16T22:22:00.845Z,99.40
2018-06-16T22:24:30.139Z,99.30
2018-06-16T22:26:59.431Z,99.50
2018-06-16T22:29:28.763Z,99.00
2018-06-16T22:34:26.874Z,99.20
2018-06-16T22:36:56.146Z,99.40
2018-06-16T22:39:25.591Z,99.40
2018-06-16T22:41:54.987Z,99.90
2018-06-16T22:44:24.483Z,99.90
2018-06-16T22:46:53.758Z,99.70
2018-06-16T22:49:23.224Z,99.80
2018-06-16T22:51:52.523Z,99.90
2018-06-16T22:54:22.097Z,99.90
2018-06-16T22:56:51.490Z,99.90
2018-06-16T22:59:20.823Z,99.50
2018-06-16T23:01:50.134Z,99.60
2018-06-16T23:04:19.406Z,99.80
2018-06-16T23:06:48.723Z,99.90
2018-06-16T23:09:17.990Z,99.90
2018-06-16T23:11:47.285Z,99.90
2018-06-16T23:14:16.593Z,99.90
2018-06-16T23:16:45.923Z,99.90
2018-06-16T23:19:15.184Z,99.90
2018-06-16T23:21:44.591Z,99.90
2018-06-16T23:24:13.879Z,99.90
2018-06-16T23:26:43.807Z,99.90
2018-06-16T23:29:13.078Z,99.90
2018-06-16T23:31:42.480Z,99.90
2018-06-16T23:34:11.730Z,99.90
2018-06-16T23:36:40.952Z,99.90
2018-06-16T23:39:12.176Z,99.90
2018-06-16T23:41:41.964Z,99.60
2018-06-16T23:44:11.215Z,99.80
2018-06-16T23:46:40.480Z,99.70
2018-06-16T23:49:09.750Z,99.60
2018-06-16T23:51:39.026Z,99.30
2018-06-16T23:54:08.354Z,99.50
2018-06-16T23:56:37.677Z,99.40
2018-06-16T23:59:06.931Z,99.40
